Time;durP1;ratioP1;P1;durP2;ratioP2;P2;SDS_P1;SDS_P2;PMS_P1;PMS_P2;Temp;Humidity;BMP_temperature;BMP_pressure;BME280_temperature;BME280_humidity;BME280_pressure;Samples;Min_cycle;Max_cycle;Signal;HPM_P1;HPM_P2
2022/07/13 00:01:54;;;;;;;8.43;7.20;;;;;;;21.27;74.54;102068.44;5069335;28;20513;-72
2022/07/13 00:04:20;;;;;;;10.95;7.18;;;;;;;21.24;73.83;102061.50;5069304;28;20486;-72
2022/07/13 00:06:45;;;;;;;14.13;7.60;;;;;;;21.23;73.42;102075.69;5069797;28;20028;-72
2022/07/13 00:09:11;;;;;;;9.38;7.25;;;;;;;21.23;68.23;102065.09;5066478;28;20033;-72
2022/07/13 00:11:36;;;;;;;11.45;7.00;;;;;;;21.21;71.98;102051.03;5061618;28;20082;-72
2022/07/13 00:14:01;;;;;;;12.25;7.10;;;;;;;21.23;71.89;102041.22;5065467;28;20381;-72
2022/07/13 00:16:26;;;;;;;11.05;6.70;;;;;;;21.11;72.10;102019.75;5053813;28;20087;-72
2022/07/13 00:18:52;;;;;;;7.88;6.90;;;;;;;21.15;69.65;102030.13;5061534;28;20132;-72
2022/07/13 00:21:17;;;;;;;8.95;6.18;;;;;;;21.20;69.48;102033.41;5068668;28;20020;-72
2022/07/13 00:23:42;;;;;;;8.50;6.53;;;;;;;21.23;70.95;102032.41;5053821;28;20119;-72
2022/07/13 00:26:08;;;;;;;10.35;6.60;;;;;;;21.24;70.75;102027.03;5067394;28;20032;-72
2022/07/13 00:28:33;;;;;;;7.10;6.40;;;;;;;21.23;71.25;102016.50;5064014;28;20110;-72
2022/07/13 00:30:59;;;;;;;8.25;6.15;;;;;;;21.23;70.07;102014.72;5064429;28;20107;-72
2022/07/13 00:33:24;;;;;;;6.50;5.90;;;;;;;21.19;70.27;102028.16;5069192;28;20039;-72
2022/07/13 00:35:50;;;;;;;9.30;6.07;;;;;;;21.15;68.75;102019.50;5066882;28;20035;-72
2022/07/13 00:38:15;;;;;;;8.45;6.22;;;;;;;21.12;69.39;102013.50;5071849;28;20036;-72
2022/07/13 00:40:40;;;;;;;7.53;6.03;;;;;;;21.15;70.14;102008.91;5063667;28;20480;-72
2022/07/13 00:43:05;;;;;;;7.28;5.50;;;;;;;21.18;70.43;101999.94;5068284;28;20028;-72
2022/07/13 00:45:31;;;;;;;12.23;6.28;;;;;;;21.15;69.52;101987.69;5067823;28;20426;-72
2022/07/13 00:47:57;;;;;;;8.65;5.50;;;;;;;21.16;69.02;101989.44;5068748;28;20036;-72
2022/07/13 00:50:22;;;;;;;6.55;5.50;;;;;;;21.11;68.78;101988.78;5056771;28;20040;-72
2022/07/13 00:52:48;;;;;;;6.25;5.55;;;;;;;21.09;68.08;101993.31;5070518;28;20404;-72
2022/07/13 00:55:14;;;;;;;8.90;5.75;;;;;;;21.11;66.51;101977.34;5070523;28;20086;-72
2022/07/13 00:57:39;;;;;;;6.28;5.57;;;;;;;21.09;69.01;101980.06;5070490;28;20063;-72
2022/07/13 01:00:10;;;;;;;8.00;5.70;;;;;;;21.08;68.96;101983.63;5068119;28;20048;-72
2022/07/13 01:02:43;;;;;;;6.18;5.47;;;;;;;21.06;68.88;101982.88;5060942;28;20094;-72
2022/07/13 01:05:10;;;;;;;7.20;5.15;;;;;;;21.08;68.49;101986.28;5074889;28;20032;-72
2022/07/13 01:07:36;;;;;;;8.63;5.63;;;;;;;21.09;69.29;101972.13;5073974;28;20052;-72
2022/07/13 01:10:05;;;;;;;7.07;4.97;;;;;;;21.08;69.18;101966.88;5073115;28;20056;-72
2022/07/13 01:12:32;;;;;;;5.78;5.18;;;;;;;21.09;69.76;101968.59;5064024;28;20063;-72
2022/07/13 01:14:58;;;;;;;7.22;5.25;;;;;;;21.10;68.04;101975.63;5064028;28;20041;-72
2022/07/13 01:17:25;;;;;;;5.38;4.88;;;;;;;21.09;67.93;101980.06;5071152;28;20537;-72
2022/07/13 01:19:51;;;;;;;8.40;5.22;;;;;;;21.05;68.43;101971.38;5072930;28;20115;-72
2022/07/13 01:22:21;;;;;;;6.00;4.88;;;;;;;21.06;68.85;101972.28;5073507;28;20514;-72
2022/07/13 01:24:49;;;;;;;6.78;4.95;;;;;;;21.07;67.07;101966.03;5072576;28;20472;-72
2022/07/13 01:27:16;;;;;;;7.82;4.88;;;;;;;21.03;68.15;101961.81;5074339;28;20052;-72
2022/07/13 01:29:41;;;;;;;5.90;4.90;;;;;;;21.02;67.43;101955.63;5072279;28;20025;-72
2022/07/13 01:32:07;;;;;;;4.78;4.35;;;;;;;21.02;66.07;101952.97;5073610;28;20035;-72
2022/07/13 01:34:32;;;;;;;5.57;4.57;;;;;;;21.01;67.41;101955.72;5063669;28;20021;-72
2022/07/13 01:36:59;;;;;;;6.75;4.35;;;;;;;21.02;65.96;101962.72;5069517;28;20029;-72
2022/07/13 01:39:25;;;;;;;6.97;4.80;;;;;;;21.03;66.62;101964.47;5071978;28;20090;-72
2022/07/13 01:41:50;;;;;;;8.38;4.80;;;;;;;21.02;66.56;101957.44;5067609;28;20028;-72
2022/07/13 01:44:16;;;;;;;7.32;4.88;;;;;;;21.02;65.87;101955.63;5065166;28;20124;-72
2022/07/13 01:46:41;;;;;;;9.02;4.68;;;;;;;21.02;65.94;101954.78;5066907;28;20025;-72
2022/07/13 01:49:07;;;;;;;7.65;4.85;;;;;;;21.03;65.09;101961.81;5071719;28;20052;-72
2022/07/13 01:51:32;;;;;;;5.95;4.30;;;;;;;21.03;63.56;101965.31;5072522;28;20027;-72
2022/07/13 01:53:57;;;;;;;5.75;4.50;;;;;;;21.04;63.90;101953.78;5059833;28;20054;-72
2022/07/13 01:56:23;;;;;;;7.28;4.70;;;;;;;21.03;63.62;101959.16;5074996;28;20059;-73
2022/07/13 01:58:48;;;;;;;5.82;4.78;;;;;;;21.04;64.00;101964.38;5066096;28;20060;-72
2022/07/13 02:01:13;;;;;;;6.18;4.13;;;;;;;20.99;63.34;101963.75;5070426;28;20092;-72
2022/07/13 02:03:39;;;;;;;6.10;3.92;;;;;;;20.97;63.30;101962.97;5073295;28;20013;-72
2022/07/13 02:06:05;;;;;;;6.25;4.30;;;;;;;21.00;64.66;101964.63;5067659;28;20044;-72
2022/07/13 02:08:30;;;;;;;5.28;4.43;;;;;;;20.97;64.99;101948.88;5070705;28;20380;-72
2022/07/13 02:10:56;;;;;;;8.07;4.47;;;;;;;20.94;63.61;101946.34;5070422;28;20029;-72
2022/07/13 02:13:23;;;;;;;9.60;4.75;;;;;;;20.97;64.38;101936.47;5070238;28;20093;-72
2022/07/13 02:15:49;;;;;;;5.47;4.60;;;;;;;20.98;63.87;101943.47;5072818;28;20028;-72
2022/07/13 02:18:15;;;;;;;6.13;4.63;;;;;;;20.96;62.89;101939.16;5072734;28;20043;-72
2022/07/13 02:20:40;;;;;;;5.38;4.57;;;;;;;20.88;62.80;101934.25;5070887;28;20469;-72
2022/07/13 02:23:06;;;;;;;4.47;4.07;;;;;;;20.90;64.87;101929.75;5072837;28;20494;-72
2022/07/13 02:25:35;;;;;;;5.35;4.15;;;;;;;20.86;64.17;101925.50;5071858;28;20024;-72
2022/07/13 02:28:00;;;;;;;8.48;4.55;;;;;;;20.84;62.98;101927.41;5072524;28;20016;-72
2022/07/13 02:30:26;;;;;;;5.93;4.32;;;;;;;20.81;63.03;101941.66;5062498;28;20036;-72
2022/07/13 02:32:51;;;;;;;9.13;4.95;;;;;;;20.83;63.44;101922.16;5071849;28;20025;-72
2022/07/13 02:35:16;;;;;;;6.50;4.28;;;;;;;20.85;64.22;101921.16;5072541;28;20031;-72
2022/07/13 02:37:42;;;;;;;6.38;5.00;;;;;;;20.85;65.66;101920.31;5072001;28;20024;-72
2022/07/13 02:40:09;;;;;;;7.65;4.60;;;;;;;20.85;65.53;101915.84;5069890;28;20032;-72
2022/07/13 02:42:35;;;;;;;5.85;4.20;;;;;;;20.83;65.26;101919.50;5072246;28;20123;-72
2022/07/13 02:45:01;;;;;;;5.55;4.32;;;;;;;20.78;63.86;101915.31;5058315;28;20468;-72
2022/07/13 02:47:26;;;;;;;5.35;4.25;;;;;;;20.77;63.83;101918.91;5070044;28;20024;-72
2022/07/13 02:49:51;;;;;;;9.98;4.57;;;;;;;20.78;63.82;101904.69;5066769;28;20025;-72
2022/07/13 02:52:17;;;;;;;6.28;4.70;;;;;;;20.78;65.72;101885.31;5072415;28;20040;-72
2022/07/13 02:54:43;;;;;;;4.95;4.18;;;;;;;20.71;66.31;101886.53;5069948;28;20530;-72
2022/07/13 02:57:08;;;;;;;6.18;4.35;;;;;;;20.76;63.99;101911.88;5072177;28;20025;-72
2022/07/13 02:59:37;;;;;;;7.03;4.25;;;;;;;20.74;65.60;101911.09;5064475;28;20045;-72
2022/07/13 03:02:04;;;;;;;5.65;4.43;;;;;;;20.73;66.81;101906.75;5062678;28;20048;-72
2022/07/13 03:04:30;;;;;;;8.38;4.32;;;;;;;20.68;66.38;101900.78;5072715;28;20047;-72
2022/07/13 03:06:55;;;;;;;5.20;4.10;;;;;;;20.71;64.82;101908.59;5071905;28;20025;-72
2022/07/13 03:09:21;;;;;;;6.57;3.90;;;;;;;20.70;65.43;101909.53;5069843;28;20542;-72
2022/07/13 03:11:46;;;;;;;6.97;4.28;;;;;;;20.69;65.70;101914.91;5071444;28;20067;-72
2022/07/13 03:14:12;;;;;;;4.80;4.30;;;;;;;20.65;65.12;101913.34;5071427;28;20028;-72
2022/07/13 03:16:37;;;;;;;4.90;4.40;;;;;;;20.66;64.89;101915.91;5070930;28;20423;-71
2022/07/13 03:19:02;;;;;;;7.45;4.20;;;;;;;20.70;64.56;101909.53;5059671;28;20396;-72
2022/07/13 03:21:29;;;;;;;6.32;4.20;;;;;;;20.66;65.04;101912.38;5070910;28;20016;-72
2022/07/13 03:23:55;;;;;;;5.65;4.20;;;;;;;20.66;64.89;101910.59;5070935;28;20016;-72
2022/07/13 03:26:21;;;;;;;5.45;4.15;;;;;;;20.64;65.02;101907.19;5071900;28;20388;-72
2022/07/13 03:28:46;;;;;;;5.40;4.43;;;;;;;20.66;65.85;101909.75;5069727;28;20040;-72
2022/07/13 03:31:11;;;;;;;7.18;4.40;;;;;;;20.67;65.28;101912.34;5071815;28;20101;-72
2022/07/13 03:33:36;;;;;;;5.85;4.38;;;;;;;20.70;64.09;101906.88;5071842;28;20028;-72
2022/07/13 03:36:02;;;;;;;5.88;4.25;;;;;;;20.65;65.77;101903.59;5071155;28;20409;-72
2022/07/13 03:38:27;;;;;;;4.97;4.47;;;;;;;20.68;64.49;101903.44;5070913;28;20029;-72
2022/07/13 03:40:53;;;;;;;6.53;4.30;;;;;;;20.69;64.97;101899.84;5071273;28;20032;-71
2022/07/13 03:43:18;;;;;;;8.20;4.57;;;;;;;20.66;64.89;101900.00;5070223;28;20029;-72
2022/07/13 03:45:43;;;;;;;6.63;3.88;;;;;;;20.67;65.33;101901.75;5057039;28;20020;-72
2022/07/13 03:48:09;;;;;;;5.53;4.38;;;;;;;20.68;64.31;101895.50;5070976;28;20465;-72
2022/07/13 03:50:34;;;;;;;6.13;4.32;;;;;;;20.65;64.38;101885.03;5070717;28;20119;-72
2022/07/13 03:52:59;;;;;;;8.68;4.03;;;;;;;20.65;65.59;101893.00;5064851;28;20035;-71
2022/07/13 03:55:25;;;;;;;5.57;3.83;;;;;;;20.65;65.70;101890.34;5054722;28;20060;-71
2022/07/13 03:57:50;;;;;;;4.30;3.83;;;;;;;20.70;66.33;101891.00;5066290;28;20056;-72
2022/07/13 04:00:15;;;;;;;6.10;4.10;;;;;;;20.69;65.33;101889.25;5067619;28;20075;-72
2022/07/13 04:02:41;;;;;;;6.70;4.25;;;;;;;20.74;66.16;101891.69;5072852;28;20024;-72
2022/07/13 04:05:06;;;;;;;7.47;4.65;;;;;;;20.69;65.33;101889.25;5079605;28;20472;-72
2022/07/13 04:07:32;;;;;;;4.60;4.07;;;;;;;20.72;64.31;101891.75;5065560;28;20112;-72
2022/07/13 04:09:57;;;;;;;4.75;4.10;;;;;;;20.75;64.84;101888.09;5059880;28;20024;-72
2022/07/13 04:12:22;;;;;;;9.45;4.53;;;;;;;20.78;64.33;101888.81;5072601;28;20438;-72
2022/07/13 04:14:50;;;;;;;5.97;3.97;;;;;;;20.85;65.53;101899.09;5076261;28;20024;-72
2022/07/13 04:17:16;;;;;;;5.72;4.20;;;;;;;20.84;65.48;101890.31;5076485;28;20444;-72
2022/07/13 04:19:41;;;;;;;8.40;4.35;;;;;;;20.87;64.75;101892.81;5058137;28;20027;-72
2022/07/13 04:22:07;;;;;;;6.95;4.15;;;;;;;20.86;64.55;101877.81;5071310;28;20101;-71
2022/07/13 04:24:32;;;;;;;5.65;4.10;;;;;;;20.88;64.86;101883.03;5070761;28;20468;-71
2022/07/13 04:26:57;;;;;;;7.65;4.38;;;;;;;20.85;64.72;101884.06;5069806;28;20626;-72
2022/07/13 04:29:23;;;;;;;9.30;4.32;;;;;;;20.87;65.17;101881.34;5071952;28;20487;-72
2022/07/13 04:31:48;;;;;;;5.45;4.13;;;;;;;20.89;64.42;101875.00;5070267;28;20032;-72
2022/07/13 04:34:13;;;;;;;6.07;4.50;;;;;;;20.97;65.19;101882.59;5071189;28;20464;-72
2022/07/13 04:36:42;;;;;;;6.55;4.18;;;;;;;21.01;65.89;101876.19;5073065;28;20099;-72
2022/07/13 04:39:07;;;;;;;7.72;4.78;;;;;;;21.12;65.67;101871.19;5067544;28;20858;-72
2022/07/13 04:41:32;;;;;;;5.13;4.63;;;;;;;21.17;65.03;101868.31;5074394;28;20039;-72
2022/07/13 04:43:57;;;;;;;7.60;4.50;;;;;;;21.21;65.86;101876.00;5070674;28;20021;-72
2022/07/13 04:46:25;;;;;;;5.68;4.35;;;;;;;21.24;65.94;101870.56;5070027;28;20111;-72
2022/07/13 04:48:50;;;;;;;5.10;4.13;;;;;;;21.24;65.18;101869.69;5073309;28;20035;-72
2022/07/13 04:51:16;;;;;;;7.07;4.15;;;;;;;21.23;64.18;101874.16;5075065;28;20103;-72
2022/07/13 04:53:41;;;;;;;6.22;4.35;;;;;;;21.20;64.97;101874.31;5072939;28;20447;-72
2022/07/13 04:56:07;;;;;;;9.32;4.60;;;;;;;21.20;66.31;101870.81;5072824;28;20033;-72
2022/07/13 04:58:32;;;;;;;8.13;4.32;;;;;;;21.21;64.12;101876.00;5062585;28;20057;-72
2022/07/13 05:00:58;;;;;;;8.48;4.63;;;;;;;21.25;65.09;101877.59;5071968;28;20377;-72
2022/07/13 05:03:23;;;;;;;6.50;4.07;;;;;;;21.28;64.65;101865.94;5075331;28;20024;-72
2022/07/13 05:05:48;;;;;;;4.93;4.10;;;;;;;21.25;66.22;101872.28;5074050;28;20522;-72
2022/07/13 05:08:14;;;;;;;6.88;4.28;;;;;;;21.28;64.87;101868.59;5070509;28;20039;-72
2022/07/13 05:10:39;;;;;;;6.95;4.53;;;;;;;21.32;65.73;101871.94;5073933;28;20119;-72
2022/07/13 05:13:04;;;;;;;4.88;4.05;;;;;;;21.37;65.97;101865.50;5074384;28;20016;-72
2022/07/13 05:15:29;;;;;;;5.78;4.03;;;;;;;21.49;65.10;101872.81;5073616;28;20033;-72
2022/07/13 05:17:55;;;;;;;7.63;4.03;;;;;;;21.61;64.50;101871.28;5072384;28;20095;-72
2022/07/13 05:20:20;;;;;;;7.30;4.18;;;;;;;21.78;62.69;101873.06;5069139;28;20040;-72
2022/07/13 05:22:45;;;;;;;5.68;4.40;;;;;;;21.90;63.51;101868.88;5070395;28;20025;-72
2022/07/13 05:25:11;;;;;;;10.60;4.53;;;;;;;21.94;63.74;101865.09;5075976;28;20024;-72
2022/07/13 05:27:36;;;;;;;7.47;4.20;;;;;;;21.92;64.46;101861.69;5072318;28;20380;-72
2022/07/13 05:30:02;;;;;;;9.75;4.15;;;;;;;21.84;62.41;101869.19;5072267;28;20044;-72
2022/07/13 05:32:27;;;;;;;8.43;3.95;;;;;;;21.74;62.97;101868.84;5069529;28;20055;-72
2022/07/13 05:34:53;;;;;;;12.32;4.38;;;;;;;21.68;62.26;101864.75;5071957;28;20469;-72
2022/07/13 05:37:18;;;;;;;5.22;4.15;;;;;;;21.58;62.46;101862.63;5070866;28;20033;-72
2022/07/13 05:39:45;;;;;;;6.25;3.70;;;;;;;21.62;64.14;101877.47;5063607;28;20029;-72
2022/07/13 05:42:11;;;;;;;8.35;3.85;;;;;;;21.64;63.02;101875.59;5073583;28;20016;-72
2022/07/13 05:44:37;;;;;;;8.15;3.80;;;;;;;21.64;62.82;101876.44;5064102;28;20021;-72
2022/07/13 05:47:03;;;;;;;4.82;3.63;;;;;;;21.65;63.86;101874.66;5072297;28;20070;-71
2022/07/13 05:49:28;;;;;;;6.40;3.92;;;;;;;21.65;62.01;101880.81;5072979;28;20472;-72
2022/07/13 05:51:53;;;;;;;6.70;3.83;;;;;;;21.69;62.85;101879.72;5072940;28;20025;-72
2022/07/13 05:54:19;;;;;;;7.63;3.80;;;;;;;21.84;63.96;101888.63;5073137;28;20037;-72
2022/07/13 05:56:44;;;;;;;4.60;3.45;;;;;;;21.92;64.04;101880.28;5072395;28;20032;-72
2022/07/13 05:59:09;;;;;;;5.75;3.42;;;;;;;22.07;62.90;101887.41;5073257;28;20492;-72
2022/07/13 06:01:35;;;;;;;8.07;3.90;;;;;;;22.12;62.03;101881.81;5072611;28;20024;-72
2022/07/13 06:04:00;;;;;;;3.90;3.50;;;;;;;22.15;63.16;101884.31;5072700;28;20028;-72
2022/07/13 06:06:25;;;;;;;7.50;3.30;;;;;;;22.15;61.48;101889.63;5068956;28;20538;-72
2022/07/13 06:08:51;;;;;;;8.88;3.80;;;;;;;22.24;63.80;101888.28;5059153;28;20028;-72
2022/07/13 06:11:16;;;;;;;6.47;3.72;;;;;;;22.31;62.55;101894.97;5070190;28;20039;-72
2022/07/13 06:13:41;;;;;;;6.10;3.47;;;;;;;22.40;60.76;101875.84;5072871;28;20361;-72
2022/07/13 06:16:07;;;;;;;5.78;3.45;;;;;;;22.51;62.99;101885.88;5064743;28;20035;-72
2022/07/13 06:18:33;;;;;;;6.63;3.28;;;;;;;22.57;61.66;101899.66;5066268;28;20020;-72
2022/07/13 06:20:58;;;;;;;5.80;3.30;;;;;;;22.67;59.24;101895.53;5072400;28;20082;-72
2022/07/13 06:23:23;;;;;;;9.60;3.95;;;;;;;22.76;57.96;101895.91;5072099;28;20020;-72
2022/07/13 06:25:48;;;;;;;17.55;4.35;;;;;;;22.89;59.04;101895.13;5071861;28;20103;-72
2022/07/13 06:28:14;;;;;;;8.70;3.38;;;;;;;23.01;60.08;101890.06;5072639;27;20032;-72
2022/07/13 06:30:39;;;;;;;8.50;3.88;;;;;;;23.14;59.58;101885.72;5069167;28;20028;-72
2022/07/13 06:33:04;;;;;;;17.55;4.78;;;;;;;23.30;55.33;101877.69;5072005;28;20025;-72
2022/07/13 06:35:31;;;;;;;18.40;4.32;;;;;;;23.35;59.24;101888.91;5073044;28;20115;-72
2022/07/13 06:37:56;;;;;;;19.65;5.05;;;;;;;23.32;61.65;101891.75;5069956;28;20060;-72
2022/07/13 06:40:22;;;;;;;22.30;5.50;;;;;;;23.32;59.22;101879.31;5075187;28;20067;-72
2022/07/13 06:42:47;;;;;;;15.60;5.18;;;;;;;23.39;58.60;101884.25;5071571;28;20028;-72
2022/07/13 06:45:13;;;;;;;14.63;5.10;;;;;;;23.44;60.32;101883.00;5060657;28;20468;-72
2022/07/13 06:47:39;;;;;;;12.52;3.80;;;;;;;23.47;60.44;101882.81;5068355;28;20126;-72
2022/07/13 06:50:08;;;;;;;14.32;4.50;;;;;;;23.51;59.78;101887.03;5070484;28;20033;-72
2022/07/13 06:52:34;;;;;;;13.23;4.53;;;;;;;23.59;61.14;101882.06;5067702;28;20028;-72
2022/07/13 06:54:59;;;;;;;22.83;4.95;;;;;;;23.82;59.11;101882.47;5067008;28;20467;-72
2022/07/13 06:57:25;;;;;;;16.35;4.95;;;;;;;23.93;58.41;101879.13;5069849;28;20039;-77
2022/07/13 06:59:50;;;;;;;11.85;4.70;;;;;;;24.09;55.59;101873.69;5072532;28;20036;-77
2022/07/13 07:02:15;;;;;;;20.85;5.28;;;;;;;24.06;57.84;101870.25;5079247;28;20032;-77
2022/07/13 07:04:40;;;;;;;14.47;4.50;;;;;;;24.00;58.34;101876.00;5077981;28;20354;-76
2022/07/13 07:07:06;;;;;;;15.63;4.03;;;;;;;23.98;57.60;101872.56;5071277;28;20271;-77
2022/07/13 07:09:31;;;;;;;13.18;4.30;;;;;;;24.01;58.73;101891.00;5071794;28;20025;-76
2022/07/13 07:11:56;;;;;;;11.65;4.70;;;;;;;24.08;57.37;101888.81;5071801;28;20036;-76
2022/07/13 07:14:22;;;;;;;6.35;4.05;;;;;;;24.02;57.11;101890.06;5071474;28;20024;-77
2022/07/13 07:16:47;;;;;;;13.05;4.20;;;;;;;23.81;56.22;101892.28;5071960;28;20115;-77
2022/07/13 07:19:13;;;;;;;7.30;3.70;;;;;;;23.61;59.97;101895.31;5071151;28;20380;-77
2022/07/13 07:21:40;;;;;;;8.27;4.10;;;;;;;23.73;57.44;101886.56;5059185;28;20334;-72
2022/07/13 07:24:05;;;;;;;7.05;3.70;;;;;;;24.19;57.64;101882.78;5068817;28;20464;-72
2022/07/13 07:26:30;;;;;;;13.80;3.95;;;;;;;24.48;56.07;101881.78;5068711;28;20025;-72
2022/07/13 07:28:56;;;;;;;9.18;4.32;;;;;;;24.65;54.65;101872.66;5071099;28;20039;-72
2022/07/13 07:31:22;;;;;;;12.88;4.78;;;;;;;24.72;55.18;101881.09;5071717;28;20021;-72
2022/07/13 07:33:48;;;;;;;10.40;5.25;;;;;;;24.72;53.24;101884.66;5071347;28;20361;-72
2022/07/13 07:36:13;;;;;;;13.48;5.50;;;;;;;24.77;54.28;101871.00;5071054;28;20070;-72
2022/07/13 07:38:38;;;;;;;12.07;4.45;;;;;;;24.88;56.10;101878.28;5071427;28;20017;-72
2022/07/13 07:41:04;;;;;;;7.20;4.80;;;;;;;24.89;55.67;101875.50;5071787;28;20098;-72
2022/07/13 07:43:29;;;;;;;9.25;4.68;;;;;;;24.90;56.81;101871.88;5070995;28;20659;-72
2022/07/13 07:45:54;;;;;;;10.40;4.45;;;;;;;24.99;57.21;101868.59;5057394;28;20381;-72
2022/07/13 07:48:20;;;;;;;10.68;4.35;;;;;;;25.02;57.18;101874.69;5071779;28;20388;-72
2022/07/13 07:50:46;;;;;;;12.68;4.53;;;;;;;24.99;58.07;101875.75;5070327;28;20112;-72
2022/07/13 07:53:11;;;;;;;13.18;4.38;;;;;;;24.98;59.29;101874.91;5071640;28;20078;-72
2022/07/13 07:55:37;;;;;;;10.45;4.25;;;;;;;25.19;57.77;101872.59;5070920;28;20029;-72
2022/07/13 07:58:02;;;;;;;7.22;5.38;;;;;;;25.33;56.09;101873.44;5071394;28;20151;-72
2022/07/13 08:00:27;;;;;;;10.13;4.57;;;;;;;25.33;57.28;101860.94;5071553;28;20052;-72
2022/07/13 08:02:53;;;;;;;8.07;4.30;;;;;;;25.23;59.06;101858.06;5070572;28;20275;-72
2022/07/13 08:05:18;;;;;;;15.48;5.68;;;;;;;25.32;57.43;101856.59;5071561;28;20472;-72
2022/07/13 08:07:45;;;;;;;10.60;5.13;;;;;;;25.55;57.87;101862.13;5070821;28;20036;-72
2022/07/13 08:10:14;;;;;;;7.05;5.07;;;;;;;25.88;54.55;101867.75;5072403;28;20111;-72
2022/07/13 08:12:40;;;;;;;11.60;5.50;;;;;;;26.19;55.29;101876.22;5075174;28;20021;-72
2022/07/13 08:15:07;;;;;;;10.73;6.80;;;;;;;26.10;52.61;101872.41;5075319;28;20021;-72
2022/07/13 08:17:36;;;;;;;17.70;5.47;;;;;;;25.93;55.31;101880.78;5074686;28;20039;-72
2022/07/13 08:20:03;;;;;;;13.68;6.55;;;;;;;25.84;53.75;101876.97;5074968;28;20028;-72
2022/07/13 08:22:28;;;;;;;10.73;6.32;;;;;;;26.01;53.27;101874.91;5075547;28;20078;-72
2022/07/13 08:24:54;;;;;;;10.60;5.07;;;;;;;26.10;56.53;101875.09;5074391;28;20108;-72
2022/07/13 08:27:22;;;;;;;11.27;5.40;;;;;;;26.37;56.07;101877.53;5075424;28;20059;-72
2022/07/13 08:29:48;;;;;;;10.75;4.55;;;;;;;26.71;57.50;101880.38;5074726;28;20166;-72
2022/07/13 08:32:14;;;;;;;8.25;5.20;;;;;;;26.98;53.95;101879.28;5074657;28;20063;-72
2022/07/13 08:40:09;;;;;;;8.25;5.40;;;;;;;26.76;54.96;101882.72;5074746;28;20124;-72
2022/07/13 08:42:36;;;;;;;14.35;5.60;;;;;;;26.70;55.23;101884.03;5074925;28;20094;-72
2022/07/13 08:45:02;;;;;;;8.27;4.90;;;;;;;26.78;54.88;101880.78;5061517;28;20082;-72
2022/07/13 08:47:30;;;;;;;10.82;5.35;;;;;;;27.24;55.28;101882.63;5073297;28;20020;-72
2022/07/13 08:50:06;;;;;;;7.65;4.90;;;;;;;27.73;52.60;101885.00;5074598;28;20475;-72
2022/07/13 08:52:34;;;;;;;8.00;4.43;;;;;;;27.75;52.91;101883.03;5074409;28;20372;-72
2022/07/13 08:55:03;;;;;;;9.52;4.90;;;;;;;27.86;50.31;101884.03;5074393;28;20035;-72
2022/07/13 08:57:28;;;;;;;8.85;4.65;;;;;;;27.99;50.66;101879.38;5074728;28;20053;-72
2022/07/13 08:59:53;;;;;;;7.72;4.38;;;;;;;27.98;50.83;101883.03;5073434;28;20404;-72
2022/07/13 09:02:19;;;;;;;6.13;3.77;;;;;;;27.98;52.21;101891.09;5074508;28;20501;-72
2022/07/13 09:04:44;;;;;;;6.18;4.30;;;;;;;27.82;51.38;101890.63;5074110;28;20267;-72
2022/07/13 09:07:11;;;;;;;8.15;4.40;;;;;;;27.68;49.06;101892.53;5074229;28;20032;-72
2022/07/13 09:09:38;;;;;;;6.88;4.55;;;;;;;27.78;49.46;101893.53;5074067;28;20047;-72
2022/07/13 09:12:10;;;;;;;8.25;4.03;;;;;;;27.74;52.14;101901.91;5074227;28;20424;-72
2022/07/13 09:14:36;;;;;;;;;;;;;;;28.05;51.57;101894.13;5073768;28;20024;-72
2022/07/13 09:17:01;;;;;;;10.30;4.13;;;;;;;27.88;48.76;101892.81;5074399;28;19912;-72
2022/07/13 09:19:33;;;;;;;6.63;3.58;;;;;;;27.99;51.30;101896.34;5072291;28;20033;-73
2022/07/13 09:22:09;;;;;;;9.13;4.43;;;;;;;28.10;49.94;101895.47;5072924;28;20025;-72
2022/07/13 09:24:48;;;;;;;7.47;4.00;;;;;;;28.05;50.78;101905.69;5073926;28;20035;-72
2022/07/13 09:27:15;;;;;;;10.35;4.10;;;;;;;28.11;49.62;101905.19;5073973;28;20029;-72
2022/07/13 09:29:41;;;;;;;13.35;4.35;;;;;;;27.95;47.98;101904.72;5073939;28;20066;-72
2022/07/13 09:32:08;;;;;;;9.95;4.00;;;;;;;27.90;49.32;101886.34;5067754;28;20424;-72
2022/07/13 09:34:57;;;;;;;10.63;4.10;;;;;;;28.04;49.70;101900.47;5067680;28;20021;-78
2022/07/13 09:37:26;;;;;;;6.30;4.45;;;;;;;27.98;51.27;101909.84;5060548;28;20037;-78
2022/07/13 09:39:55;;;;;;;6.90;3.47;;;;;;;28.07;51.33;101908.25;5075891;28;20070;-79
2022/07/13 09:42:32;;;;;;;6.13;4.10;;;;;;;28.09;49.79;101906.28;5073543;28;20020;-78
2022/07/13 09:47:48;;;;;;;7.55;3.70;;;;;;;28.03;50.18;101896.09;5065260;28;20107;-77
2022/07/13 09:50:17;;;;;;;10.00;3.70;;;;;;;28.31;50.49;101890.16;5085525;28;20036;-78
2022/07/13 09:52:43;;;;;;;5.07;3.90;;;;;;;28.27;48.02;101895.91;5072024;28;20495;-78
2022/07/13 09:55:10;;;;;;;6.63;3.45;;;;;;;28.09;47.48;101903.59;5072708;28;20024;-78
2022/07/13 09:57:43;;;;;;;7.90;3.72;;;;;;;27.93;48.37;101901.34;5073085;28;20012;-78
2022/07/13 10:00:11;;;;;;;;;;;;;;;28.30;49.53;101903.69;5073735;28;20492;-78
2022/07/13 10:02:38;;;;;;;4.38;3.80;;;;;;;28.19;47.68;101901.91;5071984;28;19916;-78
2022/07/13 10:05:04;;;;;;;5.30;3.63;;;;;;;28.19;49.44;101908.13;5062488;28;20037;-79
2022/07/13 10:07:30;;;;;;;4.43;2.83;;;;;;;28.38;49.68;101907.44;5073533;28;20021;-79
2022/07/13 10:09:57;;;;;;;5.43;3.53;;;;;;;28.49;47.81;101903.94;5072530;28;20028;-79
2022/07/13 10:12:22;;;;;;;4.00;3.20;;;;;;;28.77;47.54;101907.81;5073346;28;20430;-79
2022/07/13 10:14:49;;;;;;;9.20;3.40;;;;;;;28.87;47.02;101903.38;5071095;28;20092;-78
2022/07/13 10:17:16;;;;;;;4.45;3.25;;;;;;;28.86;46.20;101903.53;5071422;28;20071;-78
2022/07/13 10:19:57;;;;;;;8.07;3.80;;;;;;;29.06;48.19;101918.81;5072039;28;20032;-79
2022/07/13 10:22:25;;;;;;;11.35;3.65;;;;;;;29.22;48.14;101920.19;5072285;28;20073;-79
2022/07/13 10:24:52;;;;;;;5.72;3.65;;;;;;;29.26;46.83;101908.19;5071078;28;20127;-79
2022/07/13 10:27:20;;;;;;;5.00;3.42;;;;;;;29.02;45.29;101912.00;5063696;28;20514;-79
2022/07/13 10:29:50;;;;;;;8.57;4.07;;;;;;;28.74;45.86;101912.59;5072487;28;20099;-78
2022/07/13 10:32:17;;;;;;;7.10;3.55;;;;;;;28.66;48.15;101915.94;5058040;28;20078;-78
2022/07/13 10:35:10;;;;;;;6.57;3.33;;;;;;;28.85;47.45;101915.25;5067237;28;20021;-79
2022/07/13 10:37:56;;;;;;;4.65;3.00;;;;;;;28.84;48.04;101918.88;5069436;28;20101;-79
2022/07/13 10:40:26;;;;;;;5.85;3.35;;;;;;;28.59;47.25;101923.63;5071162;28;20675;-79
2022/07/13 10:42:57;;;;;;;6.40;3.08;;;;;;;28.55;46.89;101924.88;5072409;28;20040;-79
2022/07/13 10:45:31;;;;;;;7.28;2.80;;;;;;;28.62;46.28;101925.22;5060342;28;20438;-77
2022/07/13 10:47:57;;;;;;;11.13;3.10;;;;;;;28.44;48.02;101916.84;5060689;28;20035;-78
2022/07/13 10:50:22;;;;;;;5.72;3.10;;;;;;;28.70;45.02;101917.38;5072318;28;20062;-78
2022/07/13 10:52:48;;;;;;;5.07;3.10;;;;;;;29.28;44.67;101925.91;5071447;28;20021;-78
2022/07/13 10:55:20;;;;;;;7.22;3.35;;;;;;;29.61;40.91;101927.50;5093055;27;20925;-77
2022/07/13 10:57:46;;;;;;;6.70;3.10;;;;;;;29.92;42.56;101921.28;5089347;28;20036;-78
2022/07/13 11:00:18;;;;;;;5.95;2.95;;;;;;;29.94;42.58;101920.16;5096630;28;20035;-78
2022/07/13 11:02:50;;;;;;;5.43;3.28;;;;;;;29.96;43.22;101917.34;5089145;28;20099;-78
2022/07/13 11:05:29;;;;;;;4.88;2.78;;;;;;;29.69;42.22;101928.69;5104724;28;20035;-77
2022/07/13 11:07:54;;;;;;;6.43;3.13;;;;;;;29.45;43.25;101928.97;5080293;28;20100;-78
2022/07/13 11:10:30;;;;;;;7.65;2.95;;;;;;;29.08;43.75;101927.59;5089060;28;20060;-78
2022/07/13 11:13:04;;;;;;;4.97;3.15;;;;;;;29.04;45.66;101934.22;5087957;28;20024;-78
2022/07/13 11:15:50;;;;;;;4.20;2.90;;;;;;;29.44;44.04;101928.09;5089119;28;20099;-78
2022/07/13 11:18:25;;;;;;;4.20;2.95;;;;;;;29.55;42.17;101927.16;5089008;28;20021;-78
2022/07/13 11:20:54;;;;;;;7.57;3.05;;;;;;;29.59;43.06;101924.09;5087787;28;20040;-78
2022/07/13 11:26:16;;;;;;;4.47;3.22;;;;;;;29.77;43.79;101923.50;5054804;28;20093;-78
2022/07/13 11:29:06;;;;;;;7.38;3.30;;;;;;;30.15;43.81;101921.91;5082219;28;20028;-78
2022/07/13 11:31:31;;;;;;;4.57;3.20;;;;;;;30.36;41.22;101909.25;5086306;28;20112;-78
2022/07/13 11:33:57;;;;;;;4.65;2.85;;;;;;;30.90;41.92;101921.34;5093624;28;20103;-78